Time,TemperatureF,DewpointF,PressureIn,WindDirection,WindDirectionDegrees,WindSpeedMPH,WindSpeedGustMPH,Humidity,HourlyPrecipIn,Conditions,Clouds,dailyrainin,SoftwareType,DateUTC
2013-11-09 00:13:00,37.0,37.0,-100.00,West,270,4.0,8.0,99,0.00,,,-99.99,,2013-11-09 06:13:00,
2013-11-09 00:54:00,38.0,38.0,-100.00,WNW,290,4.0,9.0,99,0.00,,,-99.99,,2013-11-09 06:54:00,
2013-11-09 01:12:00,39.0,39.0,-100.00,NW,305,4.0,9.0,99,0.00,,,-99.99,,2013-11-09 07:12:00,
2013-11-09 01:53:00,40.0,39.0,-100.00,NW,310,4.0,9.0,94,0.00,,,-99.99,,2013-11-09 07:53:00,
2013-11-09 02:12:00,40.0,39.0,-100.00,WNW,300,6.0,9.0,94,0.00,,,-99.99,,2013-11-09 08:12:00,
2013-11-09 02:52:00,40.0,38.0,-100.00,NW,320,3.0,9.0,92,0.00,,,-99.99,,2013-11-09 08:52:00,
2013-11-09 03:11:00,40.0,38.0,-100.00,NW,305,3.0,9.0,92,0.00,,,-99.99,,2013-11-09 09:11:00,
2013-11-09 03:53:00,40.0,38.0,-100.00,WNW,295,4.0,19.0,92,0.00,,,-99.99,,2013-11-09 09:53:00,
2013-11-09 04:12:00,40.0,38.0,-100.00,NW,305,4.0,20.0,92,0.00,,,-99.99,,2013-11-09 10:12:00,
2013-11-09 04:52:00,40.0,38.0,-100.00,NW,305,4.0,20.0,93,0.00,,,-99.99,,2013-11-09 10:52:00,
2013-11-09 05:11:00,40.0,38.0,-100.00,NW,310,6.0,21.0,93,0.00,,,-99.99,,2013-11-09 11:11:00,
2013-11-09 05:52:00,40.0,37.0,-100.00,NW,305,4.0,19.0,91,0.00,,,-99.99,,2013-11-09 11:52:00,
2013-11-09 06:12:00,40.0,37.0,-100.00,WNW,295,4.0,9.0,91,0.00,,,-99.99,,2013-11-09 12:12:00,
2013-11-09 06:52:00,38.0,37.0,-100.00,WNW,300,4.0,22.0,94,0.00,,,-99.99,,2013-11-09 12:52:00,
2013-11-09 07:11:00,38.0,36.0,-100.00,WNW,300,5.0,22.0,93,0.00,,,-99.99,,2013-11-09 13:11:00,
2013-11-09 07:52:00,37.0,34.0,-100.00,NW,305,6.0,21.0,87,0.00,,,-99.99,,2013-11-09 13:52:00,
2013-11-09 08:11:00,37.0,34.0,-100.00,WNW,300,3.0,21.0,87,0.00,,,-99.99,,2013-11-09 14:11:00,
2013-11-09 08:52:00,37.0,29.0,-100.00,WNW,295,14.0,27.0,72,0.00,,,-99.99,,2013-11-09 14:52:00,
2013-11-09 09:11:00,37.0,29.0,-100.00,NW,305,12.0,26.0,72,0.00,,,-99.99,,2013-11-09 15:11:00,
2013-11-09 09:54:00,37.0,29.0,-100.00,WNW,300,4.0,19.0,70,0.00,,,-99.99,,2013-11-09 15:54:00,
2013-11-09 10:12:00,37.0,28.0,-100.00,NW,305,6.0,23.0,68,0.00,,,-99.99,,2013-11-09 16:12:00,
2013-11-09 10:53:00,38.0,27.0,-100.00,WNW,295,9.0,26.0,63,0.00,,,-99.99,,2013-11-09 16:53:00,
2013-11-09 11:13:00,38.0,27.0,-100.00,WNW,300,9.0,24.0,63,0.00,,,-99.99,,2013-11-09 17:13:00,
2013-11-09 11:52:00,39.0,27.0,-100.00,WNW,300,16.0,27.0,62,0.00,,,-99.99,,2013-11-09 17:52:00,
2013-11-09 12:12:00,39.0,26.0,-100.00,WNW,300,16.0,27.0,61,0.00,,,-99.99,,2013-11-09 18:12:00,
2013-11-09 12:52:00,37.0,27.0,-100.00,NW,310,15.0,27.0,64,0.00,,,-99.99,,2013-11-09 18:52:00,
2013-11-09 13:11:00,38.0,27.0,-100.00,WNW,295,12.0,27.0,65,0.00,,,-99.99,,2013-11-09 19:11:00,
2013-11-09 13:52:00,37.0,27.0,-100.00,NW,305,7.0,27.0,65,0.00,,,-99.99,,2013-11-09 19:52:00,
2013-11-09 14:12:00,38.0,27.0,-100.00,NW,305,14.0,27.0,65,0.00,,,-99.99,,2013-11-09 20:12:00,
2013-11-09 14:52:00,38.0,27.0,-100.00,NW,305,12.0,27.0,65,0.00,,,-99.99,,2013-11-09 20:52:00,
2013-11-09 15:11:00,38.0,27.0,-100.00,NW,310,6.0,26.0,65,0.00,,,-99.99,,2013-11-09 21:11:00,
2013-11-09 15:54:00,37.0,28.0,-100.00,WNW,300,7.0,24.0,67,0.00,,,-99.99,,2013-11-09 21:54:00,
2013-11-09 16:13:00,37.0,28.0,-100.00,WNW,300,14.0,27.0,68,0.00,,,-99.99,,2013-11-09 22:13:00,
2013-11-09 16:54:00,37.0,28.0,-100.00,NW,305,4.0,22.0,69,0.00,,,-99.99,,2013-11-09 22:54:00,
2013-11-09 17:13:00,37.0,28.0,-100.00,NW,305,6.0,24.0,70,0.00,,,-99.99,,2013-11-09 23:13:00,
2013-11-09 17:53:00,37.0,29.0,-100.00,NW,310,6.0,23.0,71,0.00,,,-99.99,,2013-11-09 23:53:00,
2013-11-09 18:12:00,37.0,29.0,-100.00,WNW,300,3.0,23.0,72,0.00,,,-99.99,,2013-11-10 00:12:00,
2013-11-09 18:52:00,37.0,29.0,-100.00,WNW,300,6.0,22.0,72,0.00,,,-99.99,,2013-11-10 00:52:00,
2013-11-09 19:12:00,37.0,29.0,-100.00,NW,315,6.0,21.0,72,0.00,,,-99.99,,2013-11-10 01:12:00,
2013-11-09 19:52:00,37.0,29.0,-100.00,NW,305,4.0,20.0,71,0.00,,,-99.99,,2013-11-10 01:52:00,
2013-11-09 20:12:00,37.0,29.0,-100.00,NW,305,9.0,22.0,71,0.00,,,-99.99,,2013-11-10 02:12:00,
2013-11-09 20:52:00,37.0,28.0,-100.00,NW,315,6.0,21.0,71,0.00,,,-99.99,,2013-11-10 02:52:00,
2013-11-09 21:12:00,37.0,28.0,-100.00,NW,320,4.0,20.0,71,0.00,,,-99.99,,2013-11-10 03:12:00,
2013-11-09 21:54:00,36.0,28.0,-100.00,NW,325,6.0,19.0,72,0.00,,,-99.99,,2013-11-10 03:54:00,
2013-11-09 22:02:00,-999.0,-99.9,-100.00,NW,315,6.0,9.0,-999,-99.99,,,-99.99,,2013-11-10 04:02:00,
2013-11-09 22:14:00,36.0,28.0,-100.00,NW,315,6.0,9.0,72,0.00,,,-99.99,,2013-11-10 04:14:00,
2013-11-09 22:52:00,35.0,28.0,-100.00,WNW,300,3.0,9.0,74,0.00,,,-99.99,,2013-11-10 04:52:00,
2013-11-09 23:13:00,35.0,28.0,-100.00,NW,310,4.0,9.0,74,0.00,,,-99.99,,2013-11-10 05:13:00,
2013-11-09 23:54:00,34.0,27.0,-100.00,WNW,300,6.0,9.0,74,0.00,,,-99.99,,2013-11-10 05:54:00,